METAR AND TAF INFORMATION
METAR FOR LFRL
ADDS - METARS form results

(2028 UTC 28 January 2023)
Data provider http://aviationweather.gov/metar/data/
 
METAR text: LFRL 282000Z AUTO 05004KT 020V080 9999 OVC030 06/00 Q1033
Conditions at: LFRL (LANVEOC/POULMIC(, FR) observed 2000 UTC 28 January 2023
Temperature: 6.0°C (43°F)
Dewpoint: 0.0°C (32°F) [RH = 65%]
Pressure (altimeter): 30.50 inches Hg (1033.0 mb)
Winds: from the NE (50 degrees) at 5 MPH (4 knots; 2.1 m/s)
Visibility: 6 or more miles (10+ km)
Ceiling: 3000 feet AGL
Clouds: overcast cloud deck at 3000 feet AGL
Weather: no significant weather observed at this time

METAR text: LFRL 281930Z AUTO 04007KT 010V070 9999 OVC031 06/00 Q1033
Conditions at: LFRL (LANVEOC/POULMIC(, FR) observed 1930 UTC 28 January 2023
Temperature: 6.0°C (43°F)
Dewpoint: 0.0°C (32°F) [RH = 65%]
Pressure (altimeter): 30.50 inches Hg (1033.0 mb)
Winds: from the NE (40 degrees) at 8 MPH (7 knots; 3.6 m/s)
Visibility: 6 or more miles (10+ km)
Ceiling: 3100 feet AGL
Clouds: overcast cloud deck at 3100 feet AGL
Weather: no significant weather observed at this time

 AIRPORT MAP

 RUNWAY INFORMATION
Runway 05 Runway length 3635 ft Runway width 131 ft
Runway elevation 272 ft Runway displaced threshold 0 ft Runway heading 51
Runway 23 Runway length 3635 ft Runway width 131 ft
Runway elevation 269 ft Runway displaced threshold 0 ft Runway heading 231
Runway 06 Runway length 0 ft Runway width 0 ft
Runway elevation 272 ft Runway displaced threshold 0 ft Runway heading 0
Runway 24 Runway length 0 ft Runway width 0 ft
Runway elevation 269 ft Runway displaced threshold 0 ft Runway heading 0
Runway 13 Runway length 2133 ft Runway width 177 ft
Runway elevation 0 ft Runway displaced threshold 0 ft Runway heading 128
Runway 31 Runway length 2133 ft Runway width 177 ft
Runway elevation 0 ft Runway displaced threshold 0 ft Runway heading 308

 AIRPORT FREQUENCIES
Type APP Name LANVEOC AP Frequency 120.6 MHZ
Type ATIS Name ATIS Frequency 137.4 MHZ
Type GND Name LANVEOC GN Frequency 121.9 MHZ
Type TWR Name LANVEOC TW Frequency 123.2 MHZ

 AIRPORT NEAR NAVIGATION AIDS
Type TACAN Name Lanveoc Frequency 114700 KHZ
Type NDB Name Lanveoc Frequency 428 KHZ



Powered by Virtual Airlines Manager [v2.6.2]